Time,TemperatureF,DewpointF,PressureIn,WindDirection,WindDirectionDegrees,WindSpeedMPH,WindSpeedGustMPH,Humidity,HourlyPrecipIn,Conditions,Clouds,dailyrainin,SoftwareType,DateUTC
2013-11-01 00:03:00,64.0,56.3,30.14,ESE,112,4.6,4.6,76,0.00,CLR,,0.00,WeatherDisplay:10.37,2013-10-31 23:03:00,
2013-11-01 00:08:00,64.0,56.3,30.14,ENE,68,4.6,4.6,76,0.00,CLR,,0.00,WeatherDisplay:10.37,2013-10-31 23:08:00,
2013-11-01 00:13:00,63.7,56.0,30.14,ENE,68,2.3,2.3,76,0.00,CLR,,0.00,WeatherDisplay:10.37,2013-10-31 23:13:00,
2013-11-01 00:18:00,63.7,56.0,30.14,ENE,68,3.5,3.5,76,0.00,CLR,,0.00,WeatherDisplay:10.37,2013-10-31 23:18:00,
2013-11-01 00:23:00,63.5,56.2,30.14,ESE,112,3.5,3.5,77,0.00,CLR,,0.00,WeatherDisplay:10.37,2013-10-31 23:23:00,
2013-11-01 00:28:00,63.3,56.0,30.14,ENE,68,2.3,2.3,77,0.00,CLR,,0.00,WeatherDisplay:10.37,2013-10-31 23:28:00,
2013-11-01 00:33:00,63.1,55.8,30.14,ENE,68,5.8,5.8,77,0.00,CLR,,0.00,WeatherDisplay:10.37,2013-10-31 23:33:00,
2013-11-01 00:38:00,63.1,56.2,30.13,ESE,112,3.5,3.5,78,0.00,CLR,,0.00,WeatherDisplay:10.37,2013-10-31 23:38:00,
2013-11-01 00:43:00,63.1,56.2,30.14,NE,45,3.5,0.0,78,0.00,CLR,,0.00,WeatherDisplay:10.37,2013-10-31 23:43:00,
2013-11-01 00:48:00,63.0,56.0,30.14,ESE,112,3.5,3.5,78,0.00,CLR,,0.00,WeatherDisplay:10.37,2013-10-31 23:48:00,
2013-11-01 00:53:00,63.1,56.2,30.14,ESE,112,3.5,3.5,78,0.00,CLR,,0.00,WeatherDisplay:10.37,2013-10-31 23:53:00,
2013-11-01 00:58:00,63.1,56.2,30.13,East,90,3.5,3.5,78,0.00,CLR,,0.00,WeatherDisplay:10.37,2013-10-31 23:58:00,
2013-11-01 01:03:00,63.1,56.2,30.13,ESE,112,4.6,4.6,78,0.00,CLR,,0.00,WeatherDisplay:10.37,2013-11-01 00:03:00,
2013-11-01 01:08:00,63.1,56.2,30.14,NE,45,4.6,4.6,78,0.00,CLR,,0.00,WeatherDisplay:10.37,2013-11-01 00:08:00,
2013-11-01 01:13:00,63.0,56.0,30.13,NE,45,3.5,3.5,78,0.00,CLR,,0.00,WeatherDisplay:10.37,2013-11-01 00:13:00,
2013-11-01 01:18:00,62.8,55.8,30.14,NE,45,3.5,3.5,78,0.00,CLR,,0.00,WeatherDisplay:10.37,2013-11-01 00:18:00,
2013-11-01 01:23:00,62.4,55.5,30.14,ENE,68,3.5,3.5,78,0.00,CLR,,0.00,WeatherDisplay:10.37,2013-11-01 00:23:00,
2013-11-01 01:28:00,62.4,55.5,30.13,ENE,68,2.3,2.3,78,0.00,CLR,,0.00,WeatherDisplay:10.37,2013-11-01 00:28:00,
2013-11-01 01:33:00,62.4,55.5,30.13,ENE,68,2.2,2.2,78,0.00,CLR,,0.00,WeatherDisplay:10.37,2013-11-01 00:33:00,
2013-11-01 01:38:00,62.2,55.6,30.13,ENE,68,3.5,3.5,79,0.00,CLR,,0.00,WeatherDisplay:10.37,2013-11-01 00:38:00,
2013-11-01 01:43:00,62.2,55.6,30.13,ENE,68,3.5,3.5,79,0.00,CLR,,0.00,WeatherDisplay:10.37,2013-11-01 00:43:00,
2013-11-01 01:48:00,62.1,55.5,30.13,ENE,68,1.8,1.8,79,0.00,CLR,,0.00,WeatherDisplay:10.37,2013-11-01 00:48:00,
2013-11-01 01:53:00,61.9,55.3,30.14,East,90,1.2,1.2,79,0.00,CLR,,0.00,WeatherDisplay:10.37,2013-11-01 00:53:00,
2013-11-01 01:58:00,61.7,55.1,30.14,NE,45,2.5,0.0,79,0.00,CLR,,0.00,WeatherDisplay:10.37,2013-11-01 00:58:00,
2013-11-01 02:03:00,61.7,55.1,30.14,NE,45,3.5,3.5,79,0.00,CLR,,0.00,WeatherDisplay:10.37,2013-11-01 01:03:00,
2013-11-01 02:08:00,61.7,55.1,30.14,NE,45,3.8,3.8,79,0.00,CLR,,0.00,WeatherDisplay:10.37,2013-11-01 01:08:00,
2013-11-01 02:13:00,61.9,55.3,30.14,NE,45,4.6,4.6,79,0.00,CLR,,0.00,WeatherDisplay:10.37,2013-11-01 01:13:00,
2013-11-01 02:18:00,62.1,55.5,30.14,East,90,3.5,3.5,79,0.00,CLR,,0.00,WeatherDisplay:10.37,2013-11-01 01:18:00,
2013-11-01 02:23:00,62.2,55.6,30.14,ENE,68,3.5,3.5,79,0.00,CLR,,0.00,WeatherDisplay:10.37,2013-11-01 01:23:00,
2013-11-01 02:28:00,62.1,55.5,30.13,NE,45,2.3,2.9,79,0.00,CLR,,0.00,WeatherDisplay:10.37,2013-11-01 01:28:00,
2013-11-01 02:33:00,62.2,55.6,30.13,NE,45,4.5,4.5,79,0.00,CLR,,0.00,WeatherDisplay:10.37,2013-11-01 01:33:00,
2013-11-01 02:38:00,62.2,55.6,30.13,ENE,68,4.6,4.6,79,0.00,CLR,,0.00,WeatherDisplay:10.37,2013-11-01 01:38:00,
2013-11-01 02:43:00,62.1,55.5,30.13,NE,45,3.5,3.5,79,0.00,CLR,,0.00,WeatherDisplay:10.37,2013-11-01 01:43:00,
2013-11-01 02:48:00,61.9,55.3,30.13,NE,45,3.5,3.5,79,0.00,CLR,,0.00,WeatherDisplay:10.37,2013-11-01 01:48:00,
2013-11-01 02:53:00,61.9,55.3,30.13,NE,45,3.5,3.5,79,0.00,CLR,,0.00,WeatherDisplay:10.37,2013-11-01 01:53:00,
2013-11-01 02:58:00,61.7,55.1,30.13,ENE,68,3.5,3.5,79,0.00,CLR,,0.00,WeatherDisplay:10.37,2013-11-01 01:58:00,
2013-11-01 03:03:00,61.7,55.1,30.13,NE,45,3.5,3.5,79,0.00,CLR,,0.00,WeatherDisplay:10.37,2013-11-01 02:03:00,
2013-11-01 03:08:00,61.7,55.1,30.13,ENE,68,0.0,0.0,79,0.00,CLR,,0.00,WeatherDisplay:10.37,2013-11-01 02:08:00,
2013-11-01 03:13:00,61.7,55.1,30.13,ENE,68,2.3,2.3,79,0.00,CLR,,0.00,WeatherDisplay:10.37,2013-11-01 02:13:00,
2013-11-01 03:18:00,61.3,54.8,30.13,ENE,68,2.3,2.3,79,0.00,CLR,,0.00,WeatherDisplay:10.37,2013-11-01 02:18:00,
2013-11-01 03:23:00,61.2,54.9,30.12,ENE,68,2.5,2.5,80,0.00,CLR,,0.00,WeatherDisplay:10.37,2013-11-01 02:23:00,
2013-11-01 03:28:00,60.6,54.4,30.12,ENE,68,2.3,2.3,80,0.00,CLR,,0.00,WeatherDisplay:10.37,2013-11-01 02:28:00,
2013-11-01 03:33:00,60.6,54.8,30.12,NE,45,3.5,3.5,81,0.00,CLR,,0.00,WeatherDisplay:10.37,2013-11-01 02:33:00,
2013-11-01 03:38:00,60.8,54.9,30.12,East,90,2.9,2.9,81,0.00,CLR,,0.00,WeatherDisplay:10.37,2013-11-01 02:38:00,
2013-11-01 03:43:00,61.2,55.3,30.12,ESE,112,4.6,4.6,81,0.00,CLR,,0.00,WeatherDisplay:10.37,2013-11-01 02:43:00,
2013-11-01 03:48:00,61.7,55.5,30.12,NE,45,6.9,6.9,80,0.00,CLR,,0.00,WeatherDisplay:10.37,2013-11-01 02:48:00,
2013-11-01 03:53:00,61.9,55.3,30.12,ENE,68,5.8,5.8,79,0.00,CLR,,0.00,WeatherDisplay:10.37,2013-11-01 02:53:00,
2013-11-01 03:58:00,62.2,55.6,30.12,NE,45,5.1,5.1,79,0.00,CLR,,0.00,WeatherDisplay:10.37,2013-11-01 02:58:00,
2013-11-01 04:03:00,62.1,55.5,30.12,ENE,68,3.5,3.5,79,0.00,CLR,,0.00,WeatherDisplay:10.37,2013-11-01 03:03:00,
2013-11-01 04:08:00,62.1,55.5,30.12,East,90,3.5,3.5,79,0.00,CLR,,0.00,WeatherDisplay:10.37,2013-11-01 03:08:00,
2013-11-01 04:13:00,62.1,55.5,30.12,East,90,4.6,4.6,79,0.00,CLR,,0.00,WeatherDisplay:10.37,2013-11-01 03:13:00,
2013-11-01 04:18:00,62.4,55.5,30.12,East,90,4.6,4.6,78,0.00,CLR,,0.00,WeatherDisplay:10.37,2013-11-01 03:18:00,
2013-11-01 04:23:00,62.2,55.3,30.11,ENE,68,3.8,3.8,78,0.00,CLR,,0.00,WeatherDisplay:10.37,2013-11-01 03:23:00,
2013-11-01 04:28:00,62.2,55.3,30.12,ENE,68,4.6,4.6,78,0.00,CLR,,0.00,WeatherDisplay:10.37,2013-11-01 03:28:00,
2013-11-01 04:33:00,62.2,55.3,30.12,ESE,112,4.6,4.6,78,0.00,CLR,,0.00,WeatherDisplay:10.37,2013-11-01 03:33:00,
2013-11-01 04:38:00,62.2,55.3,30.12,ESE,112,3.5,3.5,78,0.00,CLR,,0.00,WeatherDisplay:10.37,2013-11-01 03:38:00,
2013-11-01 04:43:00,62.1,55.1,30.11,East,90,3.6,3.6,78,0.00,CLR,,0.00,WeatherDisplay:10.37,2013-11-01 03:43:00,
2013-11-01 04:48:00,62.1,55.5,30.12,ESE,112,2.3,2.3,79,0.00,CLR,,0.00,WeatherDisplay:10.37,2013-11-01 03:48:00,
2013-11-01 04:53:00,62.2,55.3,30.12,ESE,112,3.5,3.5,78,0.00,CLR,,0.00,WeatherDisplay:10.37,2013-11-01 03:53:00,
2013-11-01 04:58:00,62.2,55.3,30.12,ESE,112,3.1,3.1,78,0.00,CLR,,0.00,WeatherDisplay:10.37,2013-11-01 03:58:00,
2013-11-01 05:01:00,62.2,55.3,30.12,ENE,68,6.9,6.9,78,0.00,CLR,,0.00,WeatherDisplay:10.37,2013-11-01 04:01:00,
2013-11-01 05:02:00,62.2,55.3,30.12,ENE,68,6.9,6.9,78,0.00,CLR,,0.00,WeatherDisplay:10.37,2013-11-01 04:02:00,
2013-11-01 05:07:00,61.5,54.9,30.11,SE,135,5.8,5.8,79,0.00,CLR,,0.00,WeatherDisplay:10.37,2013-11-01 04:07:00,
2013-11-01 05:12:00,61.9,55.3,30.11,East,90,4.6,4.6,79,0.00,CLR,,0.00,WeatherDisplay:10.37,2013-11-01 04:12:00,
2013-11-01 05:17:00,62.1,55.1,30.12,ESE,112,4.7,4.7,78,0.00,CLR,,0.00,WeatherDisplay:10.37,2013-11-01 04:17:00,
2013-11-01 05:22:00,62.2,55.3,30.12,ESE,112,8.1,8.1,78,0.00,CLR,,0.00,WeatherDisplay:10.37,2013-11-01 04:22:00,
2013-11-01 05:27:00,61.9,54.9,30.12,NE,45,2.9,2.9,78,0.00,CLR,,0.00,WeatherDisplay:10.37,2013-11-01 04:27:00,
2013-11-01 05:32:00,61.5,54.6,30.12,ENE,68,4.9,4.9,78,0.00,CLR,,0.00,WeatherDisplay:10.37,2013-11-01 04:32:00,
2013-11-01 05:37:00,61.7,55.1,30.12,SE,135,10.4,10.4,79,0.00,CLR,,0.00,WeatherDisplay:10.37,2013-11-01 04:37:00,
2013-11-01 05:42:00,61.9,55.3,30.12,ENE,68,6.9,6.9,79,0.00,CLR,,0.00,WeatherDisplay:10.37,2013-11-01 04:42:00,
2013-11-01 05:47:00,61.9,54.9,30.12,East,90,2.2,2.2,78,0.00,CLR,,0.00,WeatherDisplay:10.37,2013-11-01 04:47:00,
2013-11-01 05:52:00,61.7,55.1,30.11,ENE,68,4.6,4.6,79,0.00,CLR,,0.00,WeatherDisplay:10.37,2013-11-01 04:52:00,
2013-11-01 05:57:00,61.5,54.9,30.12,ESE,112,3.5,3.5,79,0.00,CLR,,0.00,WeatherDisplay:10.37,2013-11-01 04:57:00,
2013-11-01 06:02:00,61.5,54.9,30.11,ESE,112,3.5,3.5,79,0.00,CLR,,0.00,WeatherDisplay:10.37,2013-11-01 05:02:00,
2013-11-01 06:07:00,61.3,54.8,30.11,ESE,112,2.5,2.5,79,0.00,CLR,,0.00,WeatherDisplay:10.37,2013-11-01 05:07:00,
2013-11-01 06:12:00,61.3,54.8,30.12,ENE,68,6.5,6.5,79,0.00,CLR,,0.00,WeatherDisplay:10.37,2013-11-01 05:12:00,
2013-11-01 06:17:00,61.5,55.3,30.12,East,90,5.4,5.4,80,0.00,CLR,,0.00,WeatherDisplay:10.37,2013-11-01 05:17:00,
2013-11-01 06:22:00,61.5,54.9,30.12,ESE,112,5.8,5.8,79,0.00,CLR,,0.00,WeatherDisplay:10.37,2013-11-01 05:22:00,
2013-11-01 06:27:00,61.5,54.9,30.12,SE,135,3.8,3.8,79,0.00,CLR,,0.00,WeatherDisplay:10.37,2013-11-01 05:27:00,
2013-11-01 06:32:00,61.3,54.8,30.12,ENE,68,4.2,4.2,79,0.00,CLR,,0.00,WeatherDisplay:10.37,2013-11-01 05:32:00,
2013-11-01 06:37:00,61.3,54.8,30.12,East,90,5.8,5.8,79,0.00,CLR,,0.00,WeatherDisplay:10.37,2013-11-01 05:37:00,
2013-11-01 06:42:00,61.3,54.8,30.12,East,90,6.9,6.9,79,0.00,CLR,,0.00,WeatherDisplay:10.37,2013-11-01 05:42:00,
2013-11-01 06:45:00,61.3,54.8,30.12,SE,135,4.6,4.6,79,0.00,CLR,,0.00,WeatherDisplay:10.37,2013-11-01 05:45:00,
2013-11-01 06:50:00,61.5,54.9,30.13,ENE,68,4.6,4.6,79,0.00,CLR,,0.00,WeatherDisplay:10.37,2013-11-01 05:50:00,
2013-11-01 06:55:00,61.5,54.9,30.13,NE,45,4.6,4.6,79,0.00,CLR,,0.00,WeatherDisplay:10.37,2013-11-01 05:55:00,
2013-11-01 07:00:00,61.5,54.9,30.13,SE,135,3.5,3.5,79,0.00,CLR,,0.00,WeatherDisplay:10.37,2013-11-01 06:00:00,
2013-11-01 07:05:00,62.2,55.6,30.14,ESE,112,5.8,5.8,79,0.00,CLR,,0.00,WeatherDisplay:10.37,2013-11-01 06:05:00,
2013-11-01 07:10:00,62.4,55.5,30.14,ESE,112,4.6,4.6,78,0.00,CLR,,0.00,WeatherDisplay:10.37,2013-11-01 06:10:00,
2013-11-01 07:15:00,62.4,55.5,30.14,NE,45,3.5,3.5,78,0.00,CLR,,0.00,WeatherDisplay:10.37,2013-11-01 06:15:00,
2013-11-01 07:20:00,62.4,55.5,30.14,ENE,68,3.5,3.5,78,0.00,CLR,,0.00,WeatherDisplay:10.37,2013-11-01 06:20:00,
2013-11-01 07:25:00,62.8,55.8,30.14,East,90,3.1,3.1,78,0.00,CLR,,0.00,WeatherDisplay:10.37,2013-11-01 06:25:00,
2013-11-01 07:30:00,63.0,56.0,30.14,ENE,68,4.0,4.0,78,0.00,CLR,,0.00,WeatherDisplay:10.37,2013-11-01 06:30:00,
2013-11-01 07:35:00,63.3,56.0,30.14,East,90,5.8,5.8,77,0.00,CLR,,0.00,WeatherDisplay:10.37,2013-11-01 06:35:00,
2013-11-01 07:40:00,63.5,56.2,30.14,ESE,112,5.8,5.8,77,0.00,CLR,,0.00,WeatherDisplay:10.37,2013-11-01 06:40:00,
2013-11-01 07:45:00,63.7,56.0,30.14,East,90,3.5,3.5,76,0.00,CLR,,0.00,WeatherDisplay:10.37,2013-11-01 06:45:00,
2013-11-01 07:50:00,64.0,56.3,30.15,ESE,112,4.6,4.6,76,0.00,CLR,,0.00,WeatherDisplay:10.37,2013-11-01 06:50:00,
2013-11-01 07:55:00,64.2,56.5,30.14,SE,135,3.5,3.5,76,0.00,CLR,,0.00,WeatherDisplay:10.37,2013-11-01 06:55:00,
2013-11-01 08:00:00,64.6,56.5,30.15,ESE,112,3.5,3.6,75,0.00,CLR,,0.00,WeatherDisplay:10.37,2013-11-01 07:00:00,
2013-11-01 08:05:00,64.9,56.5,30.15,ENE,68,2.3,2.3,74,0.00,CLR,,0.00,WeatherDisplay:10.37,2013-11-01 07:05:00,
2013-11-01 08:10:00,65.1,56.6,30.15,ESE,112,3.5,3.5,74,0.00,CLR,,0.00,WeatherDisplay:10.37,2013-11-01 07:10:00,
2013-11-01 08:15:00,65.5,57.0,30.15,SE,135,3.8,3.8,74,0.00,CLR,,0.00,WeatherDisplay:10.37,2013-11-01 07:15:00,
2013-11-01 08:20:00,65.5,56.6,30.15,ESE,112,2.0,6.0,73,0.00,CLR,CLR,0.00,WeatherDisplay:10.37,2013-11-01 07:20:00,
2013-11-01 08:25:00,65.5,56.2,30.15,SE,135,4.6,4.6,72,0.00,CLR,,0.00,WeatherDisplay:10.37,2013-11-01 07:25:00,
2013-11-01 08:30:00,65.8,56.6,30.15,SSE,158,3.5,3.5,72,0.00,CLR,,0.00,WeatherDisplay:10.37,2013-11-01 07:30:00,
2013-11-01 08:35:00,66.0,56.7,30.15,SE,135,3.5,3.5,72,0.00,CLR,,0.00,WeatherDisplay:10.37,2013-11-01 07:35:00,
2013-11-01 08:40:00,66.6,57.3,30.15,ESE,112,4.9,4.9,72,0.00,CLR,,0.00,WeatherDisplay:10.37,2013-11-01 07:40:00,
2013-11-01 08:45:00,66.6,56.9,30.15,ESE,112,4.6,4.6,71,0.00,CLR,,0.00,WeatherDisplay:10.37,2013-11-01 07:45:00,
2013-11-01 08:50:00,66.9,57.2,30.15,SSE,158,3.5,3.5,71,0.00,CLR,,0.00,WeatherDisplay:10.37,2013-11-01 07:50:00,
2013-11-01 08:55:00,67.6,57.5,30.15,SE,135,3.5,3.5,70,0.00,CLR,,0.00,WeatherDisplay:10.37,2013-11-01 07:55:00,
2013-11-01 09:00:00,67.6,57.1,30.15,ESE,112,5.8,5.8,69,0.00,CLR,,0.00,WeatherDisplay:10.37,2013-11-01 08:00:00,
2013-11-01 09:05:00,67.8,57.3,30.15,SE,135,4.6,4.6,69,0.00,CLR,,0.00,WeatherDisplay:10.37,2013-11-01 08:05:00,
2013-11-01 09:10:00,68.2,57.6,30.15,SE,135,5.8,5.8,69,0.00,CLR,,0.00,WeatherDisplay:10.37,2013-11-01 08:10:00,
2013-11-01 09:15:00,68.2,57.6,30.15,SE,135,4.6,4.6,69,0.00,CLR,,0.00,WeatherDisplay:10.37,2013-11-01 08:15:00,
2013-11-01 09:20:00,68.5,57.6,30.15,ESE,112,6.9,6.9,68,0.00,CLR,,0.00,WeatherDisplay:10.37,2013-11-01 08:20:00,
2013-11-01 09:25:00,69.1,58.1,30.15,ESE,112,2.3,2.3,68,0.00,CLR,,0.00,WeatherDisplay:10.37,2013-11-01 08:25:00,
2013-11-01 09:30:00,69.6,57.8,30.15,SE,135,3.5,3.5,66,0.00,CLR,,0.00,WeatherDisplay:10.37,2013-11-01 08:30:00,
2013-11-01 09:35:00,70.3,58.4,30.15,SE,135,0.0,0.0,66,0.00,CLR,,0.00,WeatherDisplay:10.37,2013-11-01 08:35:00,
2013-11-01 09:40:00,70.7,58.4,30.15,SSW,202,5.8,5.8,65,0.00,CLR,,0.00,WeatherDisplay:10.37,2013-11-01 08:40:00,
2013-11-01 09:45:00,70.9,58.1,30.16,SE,135,6.9,6.9,64,0.00,CLR,,0.00,WeatherDisplay:10.37,2013-11-01 08:45:00,
2013-11-01 09:50:00,70.9,58.1,30.16,ESE,112,6.0,6.0,64,0.00,CLR,,0.00,WeatherDisplay:10.37,2013-11-01 08:50:00,
2013-11-01 09:55:00,70.5,57.3,30.15,SE,135,5.8,5.8,63,0.00,CLR,,0.00,WeatherDisplay:10.37,2013-11-01 08:55:00,
2013-11-01 10:00:00,70.9,57.7,30.15,SSE,158,2.3,2.4,63,0.00,CLR,,0.00,WeatherDisplay:10.37,2013-11-01 09:00:00,
2013-11-01 10:05:00,71.2,58.0,30.16,SE,135,4.6,4.6,63,0.00,CLR,,0.00,WeatherDisplay:10.37,2013-11-01 09:05:00,
2013-11-01 10:10:00,71.4,58.2,30.16,South,180,3.5,3.5,63,0.00,CLR,,0.00,WeatherDisplay:10.37,2013-11-01 09:10:00,
2013-11-01 10:15:00,72.1,58.8,30.16,South,180,0.0,0.0,63,0.00,CLR,,0.00,WeatherDisplay:10.37,2013-11-01 09:15:00,
2013-11-01 10:20:00,71.8,58.1,30.16,SSE,158,3.5,3.5,62,0.00,CLR,,0.00,WeatherDisplay:10.37,2013-11-01 09:20:00,
2013-11-01 10:25:00,71.8,58.1,30.16,SE,135,3.4,3.4,62,0.00,CLR,,0.00,WeatherDisplay:10.37,2013-11-01 09:25:00,
2013-11-01 10:30:00,72.1,58.4,30.16,South,180,3.5,3.5,62,0.00,CLR,,0.00,WeatherDisplay:10.37,2013-11-01 09:30:00,
2013-11-01 10:35:00,71.8,58.1,30.16,SE,135,4.6,4.6,62,0.00,CLR,,0.00,WeatherDisplay:10.37,2013-11-01 09:35:00,
2013-11-01 10:40:00,71.8,58.1,30.16,SE,135,5.8,5.8,62,0.00,CLR,,0.00,WeatherDisplay:10.37,2013-11-01 09:40:00,
2013-11-01 10:45:00,72.3,58.1,30.16,SSW,202,3.5,3.5,61,0.00,CLR,,0.00,WeatherDisplay:10.37,2013-11-01 09:45:00,
2013-11-01 10:50:00,73.2,59.0,30.16,ESE,112,8.1,8.1,61,0.00,CLR,,0.00,WeatherDisplay:10.37,2013-11-01 09:50:00,
2013-11-01 10:55:00,73.6,58.8,30.15,NE,45,3.5,3.5,60,0.00,CLR,,0.00,WeatherDisplay:10.37,2013-11-01 09:55:00,
2013-11-01 11:00:00,73.6,57.9,30.15,East,90,3.5,4.0,58,0.00,CLR,,0.00,WeatherDisplay:10.37,2013-11-01 10:00:00,
2013-11-01 11:05:00,73.4,57.2,30.15,SE,135,4.6,4.6,57,0.00,CLR,,0.00,WeatherDisplay:10.37,2013-11-01 10:05:00,
2013-11-01 11:10:00,73.2,57.6,30.15,South,180,0.0,0.0,58,0.00,CLR,,0.00,WeatherDisplay:10.37,2013-11-01 10:10:00,
2013-11-01 11:15:00,74.1,57.9,30.15,South,180,3.5,3.5,57,0.00,CLR,,0.00,WeatherDisplay:10.37,2013-11-01 10:15:00,
2013-11-01 11:20:00,75.0,58.8,30.15,SSW,202,4.6,4.6,57,0.00,CLR,,0.00,WeatherDisplay:10.37,2013-11-01 10:20:00,
2013-11-01 11:25:00,75.0,57.2,30.14,South,180,4.6,4.6,54,0.00,CLR,,0.00,WeatherDisplay:10.37,2013-11-01 10:25:00,
2013-11-01 11:30:00,74.8,57.1,30.14,South,180,3.5,3.5,54,0.00,CLR,,0.00,WeatherDisplay:10.37,2013-11-01 10:30:00,
2013-11-01 11:35:00,74.8,57.6,30.14,SE,135,4.6,4.6,55,0.00,CLR,,0.00,WeatherDisplay:10.37,2013-11-01 10:35:00,
2013-11-01 11:40:00,74.1,56.9,30.14,SSE,158,4.6,4.6,55,0.00,CLR,,0.00,WeatherDisplay:10.37,2013-11-01 10:40:00,
2013-11-01 11:45:00,74.8,57.6,30.14,South,180,5.8,5.8,55,0.00,CLR,,0.00,WeatherDisplay:10.37,2013-11-01 10:45:00,
2013-11-01 11:50:00,74.5,57.3,30.14,South,180,4.5,4.5,55,0.00,CLR,,0.00,WeatherDisplay:10.37,2013-11-01 10:50:00,
2013-11-01 11:55:00,74.3,57.1,30.14,SE,135,2.3,2.3,55,0.00,CLR,,0.00,WeatherDisplay:10.37,2013-11-01 10:55:00,
2013-11-01 12:00:00,75.4,58.1,30.13,West,270,0.0,0.0,55,0.00,CLR,,0.00,WeatherDisplay:10.37,2013-11-01 11:00:00,
2013-11-01 12:05:00,75.0,57.8,30.13,WNW,292,3.5,3.5,55,0.00,CLR,,0.00,WeatherDisplay:10.37,2013-11-01 11:05:00,
2013-11-01 12:10:00,74.3,58.1,30.14,SSW,202,6.9,6.9,57,0.00,CLR,,0.00,WeatherDisplay:10.37,2013-11-01 11:10:00,
2013-11-01 12:15:00,73.9,58.2,30.14,WSW,248,6.9,6.9,58,0.00,CLR,,0.00,WeatherDisplay:10.37,2013-11-01 11:15:00,
2013-11-01 12:20:00,73.4,58.2,30.14,WSW,248,6.9,6.9,59,0.00,CLR,,0.00,WeatherDisplay:10.37,2013-11-01 11:20:00,
2013-11-01 12:25:00,72.7,58.0,30.14,WNW,292,6.9,6.9,60,0.00,CLR,,0.00,WeatherDisplay:10.37,2013-11-01 11:25:00,
2013-11-01 12:30:00,73.0,58.3,30.14,WSW,248,8.3,8.3,60,0.00,CLR,,0.00,WeatherDisplay:10.37,2013-11-01 11:30:00,
2013-11-01 12:35:00,72.3,57.7,30.14,West,270,8.1,8.1,60,0.00,CLR,,0.00,WeatherDisplay:10.37,2013-11-01 11:35:00,
2013-11-01 12:40:00,72.3,58.1,30.14,NW,315,4.5,4.5,61,0.00,CLR,,0.00,WeatherDisplay:10.37,2013-11-01 11:40:00,
2013-11-01 12:45:00,71.8,58.1,30.13,NNW,338,6.0,6.0,62,0.00,CLR,,0.00,WeatherDisplay:10.37,2013-11-01 11:45:00,
2013-11-01 12:50:00,71.4,57.7,30.13,NW,315,8.1,8.1,62,0.00,CLR,,0.00,WeatherDisplay:10.37,2013-11-01 11:50:00,
2013-11-01 12:55:00,70.9,57.7,30.13,NW,315,4.6,4.6,63,0.00,CLR,,0.00,WeatherDisplay:10.37,2013-11-01 11:55:00,
2013-11-01 13:00:00,70.5,57.8,30.13,NW,315,11.5,11.5,64,0.00,CLR,,0.00,WeatherDisplay:10.37,2013-11-01 12:00:00,
2013-11-01 13:05:00,70.0,57.7,30.13,NNW,338,8.7,8.7,65,0.00,CLR,,0.00,WeatherDisplay:10.37,2013-11-01 12:05:00,
2013-11-01 13:10:00,70.0,58.1,30.13,NNW,338,10.4,10.4,66,0.00,CLR,,0.00,WeatherDisplay:10.37,2013-11-01 12:10:00,
2013-11-01 13:15:00,69.4,58.4,30.13,NNW,338,8.1,8.1,68,0.00,CLR,,0.00,WeatherDisplay:10.37,2013-11-01 12:15:00,
2013-11-01 13:20:00,69.4,58.8,30.13,NW,315,10.4,10.4,69,0.00,CLR,,0.00,WeatherDisplay:10.37,2013-11-01 12:20:00,
2013-11-01 13:25:00,69.1,58.9,30.13,NNW,338,9.8,9.8,70,0.00,CLR,,0.00,WeatherDisplay:10.37,2013-11-01 12:25:00,
2013-11-01 13:30:00,69.1,59.3,30.13,NNW,338,9.2,9.2,71,0.00,CLR,,0.00,WeatherDisplay:10.37,2013-11-01 12:30:00,
2013-11-01 13:35:00,69.1,59.3,30.12,NNE,22,5.8,5.8,71,0.00,CLR,,0.00,WeatherDisplay:10.37,2013-11-01 12:35:00,
2013-11-01 13:40:00,69.3,59.1,30.12,NW,315,9.2,9.2,70,0.00,CLR,,0.00,WeatherDisplay:10.37,2013-11-01 12:40:00,
2013-11-01 13:45:00,69.6,59.8,30.12,WNW,292,6.9,6.9,71,0.00,CLR,,0.00,WeatherDisplay:10.37,2013-11-01 12:45:00,
2013-11-01 13:50:00,69.6,59.8,30.11,WNW,292,6.9,6.9,71,0.00,CLR,,0.00,WeatherDisplay:10.37,2013-11-01 12:50:00,
2013-11-01 13:55:00,69.8,59.2,30.12,NNW,338,6.9,6.9,69,0.00,CLR,,0.00,WeatherDisplay:10.37,2013-11-01 12:55:00,
2013-11-01 14:00:00,69.6,58.6,30.12,NNW,338,5.8,5.8,68,0.00,CLR,,0.00,WeatherDisplay:10.37,2013-11-01 13:00:00,
2013-11-01 14:05:00,69.6,59.0,30.12,North,0,4.6,4.6,69,0.00,CLR,,0.00,WeatherDisplay:10.37,2013-11-01 13:05:00,
2013-11-01 14:10:00,69.6,59.0,30.11,NNW,338,3.5,3.5,69,0.00,CLR,,0.00,WeatherDisplay:10.37,2013-11-01 13:10:00,
2013-11-01 14:15:00,69.6,59.0,30.11,WNW,292,3.5,3.5,69,0.00,CLR,,0.00,WeatherDisplay:10.37,2013-11-01 13:15:00,
2013-11-01 14:20:00,69.8,59.2,30.11,NW,315,1.2,0.0,69,0.00,CLR,,0.00,WeatherDisplay:10.37,2013-11-01 13:20:00,
2013-11-01 14:25:00,69.6,59.0,30.12,WNW,292,1.2,1.2,69,0.00,CLR,,0.00,WeatherDisplay:10.37,2013-11-01 13:25:00,
2013-11-01 14:30:00,69.3,58.2,30.12,SW,225,3.5,3.5,68,0.00,CLR,,0.00,WeatherDisplay:10.37,2013-11-01 13:30:00,
2013-11-01 14:35:00,68.9,57.9,30.12,West,270,2.3,2.3,68,0.00,CLR,,0.00,WeatherDisplay:10.37,2013-11-01 13:35:00,
2013-11-01 14:40:00,68.9,57.9,30.12,West,270,4.6,4.6,68,0.00,CLR,,0.00,WeatherDisplay:10.37,2013-11-01 13:40:00,
2013-11-01 14:45:00,68.9,57.9,30.12,West,270,2.3,2.3,68,0.00,CLR,,0.00,WeatherDisplay:10.37,2013-11-01 13:45:00,
2013-11-01 14:50:00,68.9,57.9,30.12,NW,315,0.0,0.0,68,0.00,CLR,,0.00,WeatherDisplay:10.37,2013-11-01 13:50:00,
2013-11-01 14:55:00,69.1,58.5,30.12,NW,315,2.3,0.0,69,0.00,CLR,,0.00,WeatherDisplay:10.37,2013-11-01 13:55:00,
2013-11-01 15:00:00,69.1,58.5,30.12,WNW,292,3.5,3.5,69,0.00,CLR,,0.00,WeatherDisplay:10.37,2013-11-01 14:00:00,
2013-11-01 15:05:00,69.1,58.5,30.12,WNW,292,2.3,2.3,69,0.00,CLR,,0.00,WeatherDisplay:10.37,2013-11-01 14:05:00,
2013-11-01 15:10:00,69.1,58.5,30.12,NNW,338,3.5,3.5,69,0.00,CLR,,0.00,WeatherDisplay:10.37,2013-11-01 14:10:00,
2013-11-01 15:15:00,68.9,58.3,30.12,NNW,338,3.5,3.5,69,0.00,CLR,,0.00,WeatherDisplay:10.37,2013-11-01 14:15:00,
2013-11-01 15:20:00,69.1,58.9,30.12,NW,315,3.1,3.1,70,0.00,CLR,,0.00,WeatherDisplay:10.37,2013-11-01 14:20:00,
2013-11-01 15:25:00,68.9,59.1,30.12,NNW,338,3.5,3.5,71,0.00,CLR,,0.00,WeatherDisplay:10.37,2013-11-01 14:25:00,
2013-11-01 15:30:00,68.7,59.3,30.12,NNW,338,2.3,2.3,72,0.00,CLR,,0.00,WeatherDisplay:10.37,2013-11-01 14:30:00,
2013-11-01 15:35:00,68.7,59.3,30.12,NW,315,3.5,3.5,72,0.00,CLR,,0.00,WeatherDisplay:10.37,2013-11-01 14:35:00,
2013-11-01 15:40:00,68.5,59.2,30.12,West,270,4.6,4.6,72,0.00,CLR,,0.00,WeatherDisplay:10.37,2013-11-01 14:40:00,
2013-11-01 15:45:00,68.5,59.2,30.12,NNW,338,3.5,3.5,72,0.00,CLR,,0.00,WeatherDisplay:10.37,2013-11-01 14:45:00,
2013-11-01 15:50:00,68.5,59.2,30.11,NNW,338,3.5,3.5,72,0.00,CLR,,0.00,WeatherDisplay:10.37,2013-11-01 14:50:00,
2013-11-01 15:55:00,68.2,58.8,30.11,NNW,338,5.8,5.8,72,0.00,CLR,,0.00,WeatherDisplay:10.37,2013-11-01 14:55:00,
2013-11-01 16:00:00,68.2,58.8,30.12,NNW,338,3.6,3.6,72,0.00,CLR,,0.00,WeatherDisplay:10.37,2013-11-01 15:00:00,
2013-11-01 16:05:00,68.2,58.8,30.12,NW,315,0.0,0.0,72,0.00,CLR,,0.00,WeatherDisplay:10.37,2013-11-01 15:05:00,
2013-11-01 16:11:00,68.4,58.6,30.12,NW,315,0.0,0.0,71,0.00,CLR,,0.00,WeatherDisplay:10.37,2013-11-01 15:11:00,
2013-11-01 16:16:00,68.2,58.4,30.11,NNE,22,0.0,0.0,71,0.00,CLR,,0.00,WeatherDisplay:10.37,2013-11-01 15:16:00,
2013-11-01 16:21:00,68.2,58.8,30.11,NNE,22,0.0,0.0,72,0.00,CLR,,0.00,WeatherDisplay:10.37,2013-11-01 15:21:00,
2013-11-01 16:26:00,67.6,58.3,30.11,NNE,22,0.0,0.0,72,0.00,CLR,,0.00,WeatherDisplay:10.37,2013-11-01 15:26:00,
2013-11-01 16:31:00,67.6,58.3,30.11,NNE,22,0.0,0.0,72,0.00,CLR,,0.00,WeatherDisplay:10.37,2013-11-01 15:31:00,
2013-11-01 16:36:00,67.6,58.3,30.11,NNE,22,0.0,0.0,72,0.00,CLR,,0.00,WeatherDisplay:10.37,2013-11-01 15:36:00,
2013-11-01 16:41:00,67.6,58.7,30.11,NNW,338,0.0,0.0,73,0.00,CLR,,0.00,WeatherDisplay:10.37,2013-11-01 15:41:00,
2013-11-01 16:47:00,67.3,58.3,30.11,NE,45,0.0,0.0,73,0.00,CLR,,0.00,WeatherDisplay:10.37,2013-11-01 15:47:00,
2013-11-01 16:52:00,66.7,58.2,30.11,NE,45,0.0,0.0,74,0.00,CLR,,0.00,WeatherDisplay:10.37,2013-11-01 15:52:00,
2013-11-01 16:57:00,66.2,58.0,30.11,NE,45,0.0,0.0,75,0.00,CLR,,0.00,WeatherDisplay:10.37,2013-11-01 15:57:00,
2013-11-01 17:02:00,66.0,57.9,30.11,ENE,68,0.0,0.0,75,0.00,CLR,,0.00,WeatherDisplay:10.37,2013-11-01 16:02:00,
2013-11-01 17:08:00,65.8,58.1,30.12,NE,45,0.0,0.0,76,0.00,CLR,,0.00,WeatherDisplay:10.37,2013-11-01 16:08:00,
2013-11-01 17:13:00,65.5,58.1,30.12,NE,45,0.0,0.0,77,0.00,CLR,,0.00,WeatherDisplay:10.37,2013-11-01 16:13:00,
2013-11-01 17:18:00,65.3,57.9,30.12,NE,45,2.7,2.7,77,0.00,CLR,,0.00,WeatherDisplay:10.37,2013-11-01 16:18:00,
2013-11-01 17:23:00,64.9,57.6,30.12,NE,45,2.7,2.7,77,0.00,CLR,,0.00,WeatherDisplay:10.37,2013-11-01 16:23:00,
2013-11-01 17:28:00,64.8,57.7,30.11,NE,45,2.3,2.3,78,0.00,CLR,,0.00,WeatherDisplay:10.37,2013-11-01 16:28:00,
2013-11-01 17:34:00,64.6,57.6,30.12,NE,45,2.3,0.0,78,0.00,CLR,,0.00,WeatherDisplay:10.37,2013-11-01 16:34:00,
2013-11-01 17:39:00,64.6,57.9,30.12,NE,45,0.0,0.0,79,0.00,CLR,,0.00,WeatherDisplay:10.37,2013-11-01 16:39:00,
2013-11-01 17:44:00,64.4,57.7,30.12,NE,45,0.0,0.0,79,0.00,CLR,,0.00,WeatherDisplay:10.37,2013-11-01 16:44:00,
2013-11-01 17:49:00,64.2,57.2,30.12,NE,45,2.3,2.8,78,0.00,CLR,,0.00,WeatherDisplay:10.37,2013-11-01 16:49:00,
2013-11-01 17:55:00,64.0,57.0,30.12,NE,50,2.0,4.0,78,0.00,CLR,CLR,0.00,WeatherDisplay:10.37,2013-11-01 16:55:00,
2013-11-01 18:00:00,64.0,57.0,30.12,NNE,22,3.5,3.5,78,0.00,CLR,,0.00,WeatherDisplay:10.37,2013-11-01 17:00:00,
2013-11-01 18:05:00,64.0,57.0,30.12,NNE,22,2.3,0.0,78,0.00,CLR,,0.00,WeatherDisplay:10.37,2013-11-01 17:05:00,
2013-11-01 18:10:00,64.2,57.2,30.11,NE,56,0.0,0.0,78,0.00,CLR,CLR,0.00,WeatherDisplay:10.37,2013-11-01 17:10:00,
2013-11-01 18:15:00,64.2,57.2,30.11,ENE,68,0.0,0.0,78,0.00,CLR,,0.00,WeatherDisplay:10.37,2013-11-01 17:15:00,
2013-11-01 18:20:00,64.2,57.2,30.11,ENE,68,0.0,0.0,78,0.00,CLR,,0.00,WeatherDisplay:10.37,2013-11-01 17:20:00,
2013-11-01 18:25:00,64.6,57.6,30.12,NE,45,0.0,0.0,78,0.00,CLR,,0.00,WeatherDisplay:10.37,2013-11-01 17:25:00,
2013-11-01 18:31:00,64.9,57.9,30.11,ESE,112,0.0,0.0,78,0.00,CLR,,0.00,WeatherDisplay:10.37,2013-11-01 17:31:00,
2013-11-01 18:36:00,65.1,57.7,30.12,ESE,112,3.5,3.5,77,0.00,CLR,,0.00,WeatherDisplay:10.37,2013-11-01 17:36:00,
2013-11-01 18:41:00,65.1,57.7,30.12,NE,45,1.2,1.2,77,0.00,CLR,,0.00,WeatherDisplay:10.37,2013-11-01 17:41:00,
2013-11-01 18:46:00,65.1,57.7,30.12,ESE,112,3.5,0.0,77,0.00,CLR,,0.00,WeatherDisplay:10.37,2013-11-01 17:46:00,
2013-11-01 18:51:00,65.3,57.9,30.11,ESE,112,4.6,4.6,77,0.00,CLR,,0.00,WeatherDisplay:10.37,2013-11-01 17:51:00,
2013-11-01 18:56:00,65.3,57.9,30.12,NE,45,4.6,4.6,77,0.00,CLR,,0.00,WeatherDisplay:10.37,2013-11-01 17:56:00,
2013-11-01 19:02:00,65.3,57.9,30.11,ENE,68,3.5,3.5,77,0.00,CLR,,0.00,WeatherDisplay:10.37,2013-11-01 18:02:00,
2013-11-01 19:07:00,65.3,57.9,30.11,East,90,3.5,3.5,77,0.00,CLR,,0.00,WeatherDisplay:10.37,2013-11-01 18:07:00,
2013-11-01 19:12:00,65.5,58.1,30.11,ENE,68,3.1,3.1,77,0.00,CLR,,0.00,WeatherDisplay:10.37,2013-11-01 18:12:00,
2013-11-01 19:17:00,65.5,58.1,30.11,NE,45,3.8,3.8,77,0.00,CLR,,0.00,WeatherDisplay:10.37,2013-11-01 18:17:00,
2013-11-01 19:22:00,65.7,58.3,30.11,ENE,68,3.8,3.8,77,0.00,CLR,,0.00,WeatherDisplay:10.37,2013-11-01 18:22:00,
2013-11-01 19:27:00,65.8,58.4,30.11,East,90,2.5,2.5,77,0.00,CLR,,0.00,WeatherDisplay:10.37,2013-11-01 18:27:00,
2013-11-01 19:32:00,65.8,58.4,30.11,ENE,68,0.0,0.0,77,0.00,CLR,,0.00,WeatherDisplay:10.37,2013-11-01 18:32:00,
2013-11-01 19:37:00,65.8,58.1,30.11,NE,45,4.7,4.7,76,0.00,CLR,,0.00,WeatherDisplay:10.37,2013-11-01 18:37:00,
2013-11-01 19:42:00,66.0,58.2,30.11,NE,45,3.5,3.5,76,0.00,CLR,,0.00,WeatherDisplay:10.37,2013-11-01 18:42:00,
2013-11-01 19:47:00,66.0,57.9,30.11,ENE,68,2.9,2.9,75,0.00,CLR,,0.00,WeatherDisplay:10.37,2013-11-01 18:47:00,
2013-11-01 19:53:00,66.0,57.9,30.11,ESE,112,3.6,3.6,75,0.00,CLR,,0.00,WeatherDisplay:10.37,2013-11-01 18:53:00,
2013-11-01 19:58:00,66.0,57.9,30.11,East,90,2.5,2.5,75,0.00,CLR,,0.00,WeatherDisplay:10.37,2013-11-01 18:58:00,
2013-11-01 20:03:00,66.0,57.5,30.11,NE,45,4.6,4.6,74,0.00,CLR,,0.00,WeatherDisplay:10.37,2013-11-01 19:03:00,
2013-11-01 20:08:00,66.0,57.9,30.11,NE,45,3.5,3.5,75,0.00,CLR,,0.00,WeatherDisplay:10.37,2013-11-01 19:08:00,
2013-11-01 20:13:00,66.0,57.5,30.11,ENE,68,3.5,3.5,74,0.00,CLR,,0.00,WeatherDisplay:10.37,2013-11-01 19:13:00,
2013-11-01 20:18:00,66.0,57.5,30.11,ENE,68,2.3,2.3,74,0.00,CLR,,0.00,WeatherDisplay:10.37,2013-11-01 19:18:00,
2013-11-01 20:23:00,66.0,57.1,30.11,ENE,68,1.8,1.8,73,0.00,CLR,,0.00,WeatherDisplay:10.37,2013-11-01 19:23:00,
2013-11-01 20:28:00,66.0,56.7,30.11,East,90,1.2,0.0,72,0.00,CLR,,0.00,WeatherDisplay:10.37,2013-11-01 19:28:00,
2013-11-01 20:33:00,66.2,56.9,30.11,ENE,68,1.8,1.8,72,0.00,CLR,,0.00,WeatherDisplay:10.37,2013-11-01 19:33:00,
2013-11-01 20:38:00,66.2,56.9,30.12,East,90,2.3,2.3,72,0.00,CLR,,0.00,WeatherDisplay:10.37,2013-11-01 19:38:00,
2013-11-01 20:43:00,66.0,56.7,30.12,East,90,2.3,2.3,72,0.00,CLR,,0.00,WeatherDisplay:10.37,2013-11-01 19:43:00,
2013-11-01 20:49:00,66.0,56.7,30.12,NNE,22,2.3,2.3,72,0.00,CLR,,0.00,WeatherDisplay:10.37,2013-11-01 19:49:00,
2013-11-01 20:54:00,65.7,56.4,30.12,NE,45,1.8,1.8,72,0.00,CLR,,0.00,WeatherDisplay:10.37,2013-11-01 19:54:00,
2013-11-01 20:59:00,65.3,56.0,30.12,NE,45,2.3,2.3,72,0.00,CLR,,0.00,WeatherDisplay:10.37,2013-11-01 19:59:00,
2013-11-01 21:04:00,64.9,56.1,30.12,NE,45,0.0,0.0,73,0.00,CLR,,0.00,WeatherDisplay:10.37,2013-11-01 20:04:00,
2013-11-01 21:09:00,64.6,55.7,30.13,NE,45,3.5,3.5,73,0.00,CLR,,0.00,WeatherDisplay:10.37,2013-11-01 20:09:00,
2013-11-01 21:14:00,64.2,55.4,30.13,NE,45,2.3,2.3,73,0.00,CLR,,0.00,WeatherDisplay:10.37,2013-11-01 20:14:00,
2013-11-01 21:19:00,64.2,55.8,30.13,NE,45,3.6,3.6,74,0.00,CLR,,0.00,WeatherDisplay:10.37,2013-11-01 20:19:00,
2013-11-01 21:25:00,64.0,55.6,30.12,NE,41,1.0,3.0,74,0.00,CLR,CLR,0.00,WeatherDisplay:10.37,2013-11-01 20:25:00,
2013-11-01 21:30:00,64.0,55.6,30.12,NE,43,1.0,3.0,74,0.00,CLR,CLR,0.00,WeatherDisplay:10.37,2013-11-01 20:30:00,
2013-11-01 21:35:00,63.7,55.2,30.12,NE,54,0.0,3.0,74,0.00,CLR,CLR,0.00,WeatherDisplay:10.37,2013-11-01 20:35:00,
2013-11-01 21:40:00,63.7,55.2,30.12,NE,50,2.0,3.0,74,0.00,CLR,CLR,0.00,WeatherDisplay:10.37,2013-11-01 20:40:00,
2013-11-01 21:44:00,63.3,55.3,30.12,NE,45,3.5,3.5,75,0.00,CLR,,0.00,WeatherDisplay:10.37,2013-11-01 20:44:00,
2013-11-01 21:49:00,63.1,55.1,30.12,ENE,68,2.3,2.3,75,0.00,CLR,,0.00,WeatherDisplay:10.37,2013-11-01 20:49:00,
2013-11-01 21:54:00,63.0,54.9,30.12,NNE,32,1.0,5.0,75,0.00,CLR,CLR,0.00,WeatherDisplay:10.37,2013-11-01 20:54:00,
2013-11-01 22:00:00,63.0,55.3,30.13,NW,325,1.0,4.0,76,0.00,CLR,CLR,0.00,WeatherDisplay:10.37,2013-11-01 21:00:00,
2013-11-01 22:05:00,62.8,55.1,30.13,NNE,22,4.0,4.0,76,0.00,CLR,,0.00,WeatherDisplay:10.37,2013-11-01 21:05:00,
2013-11-01 22:10:00,62.8,55.1,30.13,NE,45,2.3,2.3,76,0.00,CLR,,0.00,WeatherDisplay:10.37,2013-11-01 21:10:00,
2013-11-01 22:15:00,62.8,54.7,30.13,NE,45,2.3,2.3,75,0.00,CLR,,0.00,WeatherDisplay:10.37,2013-11-01 21:15:00,
2013-11-01 22:20:00,62.2,54.6,30.13,NE,45,2.3,2.5,76,0.00,CLR,,0.00,WeatherDisplay:10.37,2013-11-01 21:20:00,
2013-11-01 22:25:00,61.9,54.6,30.12,NE,45,3.5,3.5,77,0.00,CLR,,0.00,WeatherDisplay:10.37,2013-11-01 21:25:00,
2013-11-01 22:30:00,61.5,54.2,30.13,ENE,68,2.3,2.3,77,0.00,CLR,,0.00,WeatherDisplay:10.37,2013-11-01 21:30:00,
2013-11-01 22:35:00,61.5,54.9,30.13,NE,45,5.8,5.8,79,0.00,CLR,,0.00,WeatherDisplay:10.37,2013-11-01 21:35:00,
2013-11-01 22:40:00,61.7,54.8,30.12,NE,45,2.3,2.3,78,0.00,CLR,,0.00,WeatherDisplay:10.37,2013-11-01 21:40:00,
2013-11-01 22:45:00,61.5,54.6,30.12,SE,135,0.0,0.3,78,0.00,CLR,,0.00,WeatherDisplay:10.37,2013-11-01 21:45:00,
2013-11-01 22:50:00,61.7,55.1,30.12,ESE,112,0.0,0.0,79,0.00,CLR,,0.00,WeatherDisplay:10.37,2013-11-01 21:50:00,
2013-11-01 22:55:00,61.7,55.1,30.13,NNE,22,3.5,3.5,79,0.00,CLR,,0.00,WeatherDisplay:10.37,2013-11-01 21:55:00,
2013-11-01 23:00:00,61.3,54.8,30.13,NE,45,2.3,2.3,79,0.00,CLR,,0.00,WeatherDisplay:10.37,2013-11-01 22:00:00,
2013-11-01 23:05:00,61.3,54.8,30.14,NE,45,1.2,1.2,79,0.00,CLR,,0.00,WeatherDisplay:10.37,2013-11-01 22:05:00,
2013-11-01 23:10:00,61.2,54.6,30.13,ENE,68,0.0,0.0,79,0.00,CLR,,0.00,WeatherDisplay:10.37,2013-11-01 22:10:00,
2013-11-01 23:15:00,61.2,54.6,30.13,ENE,68,0.0,0.0,79,0.00,CLR,,0.00,WeatherDisplay:10.37,2013-11-01 22:15:00,
2013-11-01 23:20:00,61.3,54.8,30.13,ENE,68,0.0,0.0,79,0.00,CLR,,0.00,WeatherDisplay:10.37,2013-11-01 22:20:00,
2013-11-01 23:25:00,61.2,54.6,30.13,ESE,112,2.3,2.3,79,0.00,CLR,,0.00,WeatherDisplay:10.37,2013-11-01 22:25:00,
2013-11-01 23:30:00,61.2,54.6,30.13,ESE,112,0.0,0.0,79,0.00,CLR,,0.00,WeatherDisplay:10.37,2013-11-01 22:30:00,
2013-11-01 23:35:00,61.2,54.6,30.13,ENE,68,0.0,0.0,79,0.00,CLR,,0.00,WeatherDisplay:10.37,2013-11-01 22:35:00,
2013-11-01 23:40:00,61.2,54.6,30.13,ENE,68,2.3,2.3,79,0.00,CLR,,0.00,WeatherDisplay:10.37,2013-11-01 22:40:00,
2013-11-01 23:45:00,61.0,54.4,30.13,NE,45,3.5,3.5,79,0.00,CLR,,0.00,WeatherDisplay:10.37,2013-11-01 22:45:00,
2013-11-01 23:50:00,61.2,54.6,30.13,NE,45,3.5,3.5,79,0.00,CLR,,0.00,WeatherDisplay:10.37,2013-11-01 22:50:00,
2013-11-01 23:55:00,61.0,54.4,30.13,NNE,22,0.0,0.0,79,0.00,CLR,,0.00,WeatherDisplay:10.37,2013-11-01 22:55:00,